Accueil
METAR-TAF:

METAR-TAF

Aéroports :

Bagdad, Irak

Aéroport international de Bagdad

latitude: 33-15-45N, longitude: 44-14-04E, altitude: 35 m

Observation

Le bulletin a été fait il y a 32 minutes, à 02:30 UTC
Vent 5 kt de ouest/nord-ouest
Température 25°C
Humidité 54%
Pression 1004 hPa
Visibilité 10 km ou plus
pas de nuages en-dessous de 1500 mètres et pas de cumulonimbus.

METAR: ORBI 240230Z 30005KT CAVOK 25/15 Q1004

Heure: 06:02 (03:02 UTC)

Prévision

Le bulletin a été fait il y a 4 heures et 2 minutes, à 23:00 UTC
Prévision valable du 24 à 00 UTC au 24 à 24 UTC
Vent 10 kt de nord-ouest
Visibilité 10 km ou plus
pas de nuages en-dessous de 1500 mètres et pas de cumulonimbus.

TAF: ORBI 232300Z 2400/2424 31010KT CAVOK

Observations et prévisions météorologiques de plus de 4000 aéroports (messages METAR et TAF).

Les stations disponibles sont représentées par des disques jaunes et rouges sur la carte.

Passer la souris dessus pour voir le nom de la station.

Cliquer dessus pour voir les observations et prévisions météorologiques.

Pour changer de carte: cliquez sur les boutons verts avec une croix noire pour zoomer, sur le bouton vert avec un tiret pour effectuer un zoom arrière, ou sur les flèches vertes pour les cartes adjacentes.


METAR-TAF: